createdAt,value
2019-02-19T13:58:21.676Z,964.99
2019-02-19T13:59:21.372Z,964.99
2019-02-19T14:00:21.309Z,965.00
2019-02-19T14:01:21.394Z,965.00
2019-02-19T14:02:21.216Z,965.00
2019-02-19T14:03:21.156Z,965.07
2019-02-19T14:04:21.106Z,965.04
2019-02-19T14:05:21.289Z,965.05
2019-02-19T14:06:21.016Z,964.97
2019-02-19T14:07:20.968Z,965.08
2019-02-19T14:08:20.995Z,965.02
2019-02-19T14:09:20.891Z,964.98
2019-02-19T14:10:20.897Z,964.99
2019-02-19T14:11:20.781Z,964.96
2019-02-19T14:12:20.754Z,965.00
2019-02-19T14:13:20.740Z,964.97
2019-02-19T14:14:20.860Z,964.95
2019-02-19T14:15:20.633Z,964.94
2019-02-19T14:16:20.549Z,964.93
2019-02-19T14:17:20.531Z,964.96
2019-02-19T14:18:20.461Z,964.94
2019-02-19T14:19:21.551Z,964.98
2019-02-19T14:20:20.388Z,964.95
2019-02-19T14:21:20.337Z,964.97
2019-02-19T14:22:20.290Z,965.01
2019-02-19T14:23:20.462Z,965.02
2019-02-19T14:24:20.196Z,965.05
2019-02-19T14:25:20.144Z,965.02
2019-02-19T14:26:20.677Z,965.09
2019-02-19T14:27:20.054Z,965.09
2019-02-19T14:28:20.010Z,965.08
2019-02-19T14:29:19.961Z,965.13
2019-02-19T14:30:19.913Z,965.03
2019-02-19T14:31:19.864Z,965.06
2019-02-19T14:32:19.961Z,965.07
2019-02-19T14:33:19.752Z,965.06
2019-02-19T14:34:19.703Z,965.09
2019-02-19T14:35:19.673Z,965.07
2019-02-19T14:36:19.616Z,965.09
2019-02-19T14:37:19.567Z,965.11
2019-02-19T14:38:19.516Z,965.06
2019-02-19T14:39:19.666Z,965.02
2019-02-19T14:40:19.425Z,965.01
2019-02-19T14:41:19.376Z,964.96
2019-02-19T14:42:19.346Z,964.97
2019-02-19T14:43:19.280Z,965.00
2019-02-19T14:44:19.236Z,964.98
2019-02-19T14:45:19.186Z,964.97
2019-02-19T14:46:19.371Z,964.95
2019-02-19T14:47:19.094Z,964.91
2019-02-19T14:48:19.048Z,964.95
2019-02-19T14:49:19.001Z,964.96
2019-02-19T14:50:18.957Z,964.96
2019-02-19T14:51:18.906Z,964.97
2019-02-19T14:52:18.860Z,965.00
2019-02-19T14:53:18.977Z,964.97
2019-02-19T14:54:18.764Z,965.03
2019-02-19T14:55:18.730Z,965.02
2019-02-19T14:56:18.686Z,964.98
2019-02-19T14:57:18.624Z,964.98
2019-02-19T14:58:18.578Z,964.98
2019-02-19T14:59:18.531Z,964.95
2019-02-19T15:00:18.488Z,964.95
2019-02-19T15:01:18.436Z,964.93
2019-02-19T15:02:18.389Z,964.90
2019-02-19T15:03:18.341Z,964.85
2019-02-19T15:04:18.295Z,964.89
2019-02-19T15:05:18.281Z,964.85
2019-02-19T15:06:18.202Z,964.85
2019-02-19T15:07:18.157Z,964.86
2019-02-19T15:08:18.118Z,964.81
2019-02-19T15:09:18.063Z,964.80
2019-02-19T15:10:18.013Z,964.77
2019-02-19T15:11:17.971Z,964.81
2019-02-19T15:12:17.937Z,964.81
2019-02-19T15:13:17.876Z,964.76
2019-02-19T15:14:17.847Z,964.77
2019-02-19T15:15:17.783Z,964.68
2019-02-19T15:16:17.732Z,964.75
2019-02-19T15:17:17.685Z,964.77
2019-02-19T15:18:17.636Z,964.77
2019-02-19T15:19:19.902Z,964.73
2019-02-19T15:20:17.546Z,964.78
2019-02-19T15:21:17.495Z,964.77
2019-02-19T15:22:17.449Z,964.73
2019-02-19T15:23:17.403Z,964.70
2019-02-19T15:24:18.885Z,964.71
2019-02-19T15:25:17.306Z,964.72
2019-02-19T15:26:17.259Z,964.75
2019-02-19T15:27:17.237Z,964.78
2019-02-19T15:28:17.167Z,964.76
2019-02-19T15:29:17.176Z,964.77
2019-02-19T15:30:17.072Z,964.73
2019-02-19T15:31:17.641Z,964.72
2019-02-19T15:32:16.978Z,964.71
2019-02-19T15:33:16.934Z,964.72
2019-02-19T15:34:16.923Z,964.79
2019-02-19T15:35:16.836Z,964.75
2019-02-19T15:36:16.996Z,964.74
2019-02-19T15:37:16.742Z,964.78
2019-02-19T15:38:16.698Z,964.78
2019-02-19T15:39:16.647Z,964.75
2019-02-19T15:40:16.599Z,964.77
2019-02-19T15:41:16.707Z,964.80
2019-02-19T15:42:16.507Z,964.76
2019-02-19T15:43:16.719Z,964.78
2019-02-19T15:44:16.471Z,964.78
2019-02-19T15:45:16.366Z,964.78
2019-02-19T15:46:16.501Z,964.77
2019-02-19T15:47:16.269Z,964.77
2019-02-19T15:48:16.224Z,964.75
2019-02-19T15:49:16.177Z,964.78
2019-02-19T15:50:16.129Z,964.76
2019-02-19T15:51:16.303Z,964.75
2019-02-19T15:52:16.032Z,964.75
2019-02-19T15:53:15.986Z,964.74
2019-02-19T15:54:15.950Z,964.75
2019-02-19T15:55:15.892Z,964.72
2019-02-19T15:56:17.829Z,964.72
2019-02-19T15:57:15.799Z,964.72
2019-02-19T15:58:15.747Z,964.72
2019-02-19T15:59:15.712Z,964.70
2019-02-19T16:00:15.672Z,964.74
2019-02-19T16:01:15.813Z,964.69
2019-02-19T16:02:15.557Z,964.70
2019-02-19T16:03:15.511Z,964.70
2019-02-19T16:04:15.478Z,964.71
2019-02-19T16:05:15.419Z,964.67
2019-02-19T16:06:15.521Z,964.70
2019-02-19T16:07:15.321Z,964.68
2019-02-19T16:08:15.272Z,964.68
2019-02-19T16:09:15.222Z,964.66
2019-02-19T16:10:15.184Z,964.64
2019-02-19T16:11:15.326Z,964.62
2019-02-19T16:12:15.082Z,964.61
2019-02-19T16:13:15.034Z,964.59
2019-02-19T16:14:16.874Z,964.62
2019-02-19T16:15:14.947Z,964.67
2019-02-19T16:16:15.127Z,964.65
2019-02-19T16:17:14.855Z,964.64
2019-02-19T16:18:14.797Z,964.68
2019-02-19T16:19:14.752Z,964.68
2019-02-19T16:20:14.706Z,964.70
2019-02-19T16:21:14.828Z,964.68
2019-02-19T16:22:14.605Z,964.68
2019-02-19T16:23:14.560Z,964.70
2019-02-19T16:24:14.517Z,964.72
2019-02-19T16:25:14.465Z,964.67
2019-02-19T16:26:14.428Z,964.71
2019-02-19T16:27:14.378Z,964.72
2019-02-19T16:28:14.516Z,964.75
2019-02-19T16:29:14.286Z,964.74
2019-02-19T16:30:14.441Z,964.72
2019-02-19T16:31:14.175Z,964.76
2019-02-19T16:32:14.130Z,964.75
2019-02-19T16:33:14.908Z,964.79
2019-02-19T16:34:14.037Z,964.77
2019-02-19T16:35:13.995Z,964.76
2019-02-19T16:36:13.935Z,964.79
2019-02-19T16:37:14.042Z,964.75
2019-02-19T16:38:13.837Z,964.76
2019-02-19T16:39:13.792Z,964.79
2019-02-19T16:40:13.741Z,964.80
2019-02-19T16:41:13.692Z,964.76
2019-02-19T16:42:13.666Z,964.77
2019-02-19T16:43:13.610Z,964.81
2019-02-19T16:44:13.739Z,964.83
2019-02-19T16:45:13.501Z,964.80
2019-02-19T16:46:13.454Z,964.86
2019-02-19T16:47:13.408Z,964.89
2019-02-19T16:48:13.358Z,964.90
2019-02-19T16:49:13.318Z,964.90
2019-02-19T16:50:13.269Z,964.91
2019-02-19T16:51:13.454Z,964.95
2019-02-19T16:52:13.165Z,965.01
2019-02-19T16:53:13.123Z,965.03
2019-02-19T16:54:13.081Z,965.08
2019-02-19T16:55:13.019Z,965.13
2019-02-19T16:56:13.153Z,965.08
2019-02-19T16:57:12.923Z,965.14
2019-02-19T16:58:12.876Z,965.14
2019-02-19T16:59:12.828Z,965.12
2019-02-19T17:00:12.780Z,965.15
2019-02-19T17:01:12.963Z,965.09
2019-02-19T17:02:12.685Z,965.08
2019-02-19T17:03:12.646Z,965.11
2019-02-19T17:04:12.597Z,965.05
2019-02-19T17:05:12.539Z,965.08
2019-02-19T17:06:12.668Z,965.15
2019-02-19T17:07:12.460Z,965.20
2019-02-19T17:08:12.391Z,965.21
2019-02-19T17:09:12.352Z,965.27
2019-02-19T17:10:12.297Z,965.31
2019-02-19T17:11:12.457Z,965.29
2019-02-19T17:12:12.196Z,965.32
2019-02-19T17:13:12.148Z,965.31
2019-02-19T17:14:12.098Z,965.31
2019-02-19T17:15:12.055Z,965.32
2019-02-19T17:16:12.001Z,965.31
2019-02-19T17:17:11.953Z,965.34
2019-02-19T17:18:12.078Z,965.33
2019-02-19T17:19:11.856Z,965.28
2019-02-19T17:20:26.307Z,965.34
2019-02-19T17:21:11.768Z,965.33
2019-02-19T17:22:11.714Z,965.37
2019-02-19T17:23:11.659Z,965.40
2019-02-19T17:24:11.611Z,965.42
2019-02-19T17:25:11.570Z,965.45
2019-02-19T17:26:11.513Z,965.49
2019-02-19T17:27:11.665Z,965.49
2019-02-19T17:28:11.415Z,965.50
2019-02-19T17:29:11.366Z,965.53
2019-02-19T17:30:11.325Z,965.55
2019-02-19T17:31:11.269Z,965.58
2019-02-19T17:32:11.222Z,965.64
2019-02-19T17:33:11.170Z,965.61
2019-02-19T17:34:11.126Z,965.59
2019-02-19T17:35:11.072Z,965.60
2019-02-19T17:36:11.179Z,965.64
2019-02-19T17:37:10.977Z,965.69
2019-02-19T17:38:14.746Z,965.67
2019-02-19T17:39:10.873Z,965.64
2019-02-19T17:40:10.825Z,965.63
2019-02-19T17:41:10.984Z,965.57
2019-02-19T17:42:10.728Z,965.62
2019-02-19T17:43:10.677Z,965.63
2019-02-19T17:44:10.641Z,965.68
2019-02-19T17:45:10.577Z,965.69
2019-02-19T17:46:10.688Z,965.72
2019-02-19T17:47:10.479Z,965.71
2019-02-19T17:48:10.433Z,965.70
2019-02-19T17:49:10.384Z,965.71
2019-02-19T17:50:10.332Z,965.62
2019-02-19T17:51:10.297Z,965.69
2019-02-19T17:52:10.238Z,965.70
2019-02-19T17:53:10.191Z,965.70
2019-02-19T17:54:10.137Z,965.69
2019-02-19T17:55:10.295Z,965.66
2019-02-19T17:56:10.038Z,965.69
2019-02-19T17:57:09.988Z,965.68
2019-02-19T17:58:09.941Z,965.65
2019-02-19T17:59:09.889Z,965.60
2019-02-19T18:00:09.853Z,965.61
2019-02-19T18:01:09.790Z,965.60
2019-02-19T18:02:09.887Z,965.61
2019-02-19T18:03:09.692Z,965.64
2019-02-19T18:04:11.082Z,965.65
2019-02-19T18:05:09.594Z,965.70
2019-02-19T18:06:09.545Z,965.74
2019-02-19T18:07:09.515Z,965.75
2019-02-19T18:08:09.458Z,965.77
2019-02-19T18:09:09.594Z,965.78
2019-02-19T18:10:09.347Z,965.74
2019-02-19T18:11:09.306Z,965.74
2019-02-19T18:12:09.251Z,965.73
2019-02-19T18:13:09.200Z,965.74
2019-02-19T18:14:09.172Z,965.70
2019-02-19T18:15:09.155Z,965.74
2019-02-19T18:16:09.298Z,965.73
2019-02-19T18:17:09.002Z,965.77
2019-02-19T18:18:08.956Z,965.82
2019-02-19T18:19:08.908Z,965.79
2019-02-19T18:20:08.860Z,965.81
2019-02-19T18:21:08.824Z,965.87
2019-02-19T18:22:08.757Z,965.84
2019-02-19T18:23:08.708Z,965.81
2019-02-19T18:24:08.663Z,965.87
2019-02-19T18:25:08.814Z,965.91
2019-02-19T18:26:08.560Z,965.93
2019-02-19T18:27:08.511Z,965.89
2019-02-19T18:28:08.562Z,965.92
2019-02-19T18:29:08.412Z,965.92
2019-02-19T18:30:08.365Z,965.90
2019-02-19T18:31:08.316Z,965.93
2019-02-19T18:32:08.265Z,965.99
2019-02-19T18:33:08.216Z,965.92
2019-02-19T18:34:08.407Z,965.94
2019-02-19T18:35:08.116Z,965.94
2019-02-19T18:36:08.069Z,965.90
2019-02-19T18:37:08.109Z,965.93
2019-02-19T18:38:07.968Z,965.91
2019-02-19T18:39:07.920Z,965.91
2019-02-19T18:40:07.869Z,965.92
2019-02-19T18:41:07.823Z,965.94
2019-02-19T18:42:07.773Z,965.97
2019-02-19T18:43:07.723Z,965.96
2019-02-19T18:44:07.673Z,965.96
2019-02-19T18:45:07.826Z,965.97
2019-02-19T18:46:07.578Z,966.01
2019-02-19T18:47:07.525Z,966.01
2019-02-19T18:48:07.566Z,965.98
2019-02-19T18:49:07.426Z,965.99
2019-02-19T18:50:07.378Z,965.99
2019-02-19T18:51:07.328Z,966.02
2019-02-19T18:52:07.280Z,966.00
2019-02-19T18:53:07.250Z,966.07
2019-02-19T18:54:07.433Z,966.01
2019-02-19T18:55:07.135Z,966.06
2019-02-19T18:56:07.081Z,966.05
2019-02-19T18:57:07.116Z,966.05
2019-02-19T18:58:06.984Z,966.04
2019-02-19T18:59:06.936Z,966.03
2019-02-19T19:00:06.885Z,966.08
2019-02-19T19:01:08.563Z,966.02
2019-02-19T19:02:06.786Z,966.05
2019-02-19T19:03:06.925Z,966.12
2019-02-19T19:04:06.690Z,966.13
2019-02-19T19:05:06.637Z,966.15
2019-02-19T19:06:06.668Z,966.20
2019-02-19T19:07:06.539Z,966.18
2019-02-19T19:08:06.495Z,966.20
2019-02-19T19:09:06.441Z,966.26
2019-02-19T19:10:06.390Z,966.20
2019-02-19T19:11:06.343Z,966.20
2019-02-19T19:12:06.294Z,966.21
2019-02-19T19:13:06.243Z,966.22
2019-02-19T19:14:06.445Z,966.23
2019-02-19T19:15:06.145Z,966.23
2019-02-19T19:16:06.102Z,966.19
2019-02-19T19:17:06.123Z,966.25
2019-02-19T19:18:06.000Z,966.21
2019-02-19T19:19:05.948Z,966.24
2019-02-19T19:20:05.902Z,966.21
2019-02-19T19:21:08.191Z,966.27
2019-02-19T19:22:05.798Z,966.18
2019-02-19T19:23:05.948Z,966.19
2019-02-19T19:24:05.699Z,966.19
2019-02-19T19:25:05.658Z,966.20
2019-02-19T19:26:05.679Z,966.23
2019-02-19T19:27:05.552Z,966.22
2019-02-19T19:28:05.501Z,966.27
2019-02-19T19:29:05.456Z,966.25
2019-02-19T19:30:05.402Z,966.27
2019-02-19T19:31:05.353Z,966.30
2019-02-19T19:32:05.308Z,966.34
2019-02-19T19:33:05.253Z,966.33
2019-02-19T19:34:05.446Z,966.34
2019-02-19T19:35:05.155Z,966.32
2019-02-19T19:36:05.106Z,966.33
2019-02-19T19:37:05.135Z,966.32
2019-02-19T19:38:05.009Z,966.28
2019-02-19T19:39:04.958Z,966.31
2019-02-19T19:40:04.910Z,966.33
2019-02-19T19:41:04.858Z,966.32
2019-02-19T19:42:04.807Z,966.32
2019-02-19T19:43:04.949Z,966.32
2019-02-19T19:44:04.710Z,966.30
2019-02-19T19:45:04.659Z,966.28
2019-02-19T19:46:04.695Z,966.31
2019-02-19T19:47:04.561Z,966.27
2019-02-19T19:48:04.511Z,966.31
2019-02-19T19:49:04.460Z,966.32
2019-02-19T19:50:04.416Z,966.33
2019-02-19T19:51:04.362Z,966.37
2019-02-19T19:52:04.315Z,966.36
2019-02-19T19:53:04.263Z,966.34
2019-02-19T19:54:04.457Z,966.36
2019-02-19T19:55:04.165Z,966.38
2019-02-19T19:56:04.128Z,966.39
2019-02-19T19:57:04.526Z,966.38
2019-02-19T19:58:04.015Z,966.41
2019-02-19T19:59:04.020Z,966.40
2019-02-19T20:00:03.919Z,966.36
2019-02-19T20:01:03.870Z,966.42
2019-02-19T20:02:03.820Z,966.43
2019-02-19T20:03:03.970Z,966.46
2019-02-19T20:04:03.721Z,966.44
2019-02-19T20:05:03.669Z,966.44
2019-02-19T20:06:03.691Z,966.48
2019-02-19T20:07:03.573Z,966.49
2019-02-19T20:08:03.519Z,966.48
2019-02-19T20:09:03.469Z,966.51
2019-02-19T20:10:03.420Z,966.51
2019-02-19T20:11:03.373Z,966.50
2019-02-19T20:12:03.323Z,966.47
2019-02-19T20:13:03.272Z,966.42
2019-02-19T20:14:03.368Z,966.48
2019-02-19T20:15:03.173Z,966.51
2019-02-19T20:16:03.124Z,966.49
2019-02-19T20:17:03.152Z,966.50
2019-02-19T20:18:03.025Z,966.56
2019-02-19T20:19:02.977Z,966.53
2019-02-19T20:20:02.928Z,966.54
2019-02-19T20:21:02.877Z,966.60
2019-02-19T20:22:02.827Z,966.63
2019-02-19T20:23:02.995Z,966.63
2019-02-19T20:24:02.735Z,966.63
2019-02-19T20:25:02.677Z,966.62
2019-02-19T20:26:02.630Z,966.61
2019-02-19T20:27:02.583Z,966.57
2019-02-19T20:28:02.534Z,966.58
2019-02-19T20:29:07.205Z,966.54
2019-02-19T20:30:02.434Z,966.56
2019-02-19T20:31:02.381Z,966.55
2019-02-19T20:32:02.335Z,966.57
2019-02-19T20:33:02.309Z,966.59
2019-02-19T20:34:02.381Z,966.57
2019-02-19T20:35:02.186Z,966.58
2019-02-19T20:36:02.139Z,966.56
2019-02-19T20:37:02.161Z,966.59
2019-02-19T20:38:02.035Z,966.60
2019-02-19T20:39:01.986Z,966.62
2019-02-19T20:40:01.942Z,966.59
2019-02-19T20:41:01.890Z,966.64
2019-02-19T20:42:01.838Z,966.70
2019-02-19T20:43:01.983Z,966.70
2019-02-19T20:44:01.742Z,966.71
2019-02-19T20:45:01.691Z,966.70
2019-02-19T20:46:01.709Z,966.69
2019-02-19T20:47:01.593Z,966.70
2019-02-19T20:48:01.548Z,966.68
2019-02-19T20:49:01.494Z,966.71
2019-02-19T20:50:01.465Z,966.70
2019-02-19T20:51:01.396Z,966.69
2019-02-19T20:52:01.346Z,966.71
2019-02-19T20:53:01.297Z,966.72
2019-02-19T20:54:01.401Z,966.74
2019-02-19T20:55:01.197Z,966.76
2019-02-19T20:56:01.152Z,966.75
2019-02-19T20:57:01.169Z,966.72
2019-02-19T20:58:01.049Z,966.69
2019-02-19T20:59:01.003Z,966.69
2019-02-19T21:00:00.951Z,966.68
2019-02-19T21:01:00.902Z,966.67
2019-02-19T21:02:00.851Z,966.71
2019-02-19T21:03:01.007Z,966.73
2019-02-19T21:04:00.755Z,966.76
2019-02-19T21:05:00.703Z,966.71
2019-02-19T21:06:00.722Z,966.74
2019-02-19T21:07:00.605Z,966.70
2019-02-19T21:08:00.551Z,966.69
2019-02-19T21:09:00.506Z,966.70
2019-02-19T21:10:00.476Z,966.73
2019-02-19T21:11:00.409Z,966.73
2019-02-19T21:12:00.358Z,966.73
2019-02-19T21:13:00.307Z,966.73
2019-02-19T21:14:00.412Z,966.71
2019-02-19T21:15:00.260Z,966.73
2019-02-19T21:16:00.159Z,966.70
2019-02-19T21:17:00.177Z,966.71
2019-02-19T21:18:00.061Z,966.75
2019-02-19T21:19:00.011Z,966.79
2019-02-19T21:19:59.961Z,966.80
2019-02-19T21:20:59.912Z,966.78
2019-02-19T21:21:59.866Z,966.79
2019-02-19T21:23:00.016Z,966.77
2019-02-19T21:23:59.763Z,966.78
2019-02-19T21:24:59.719Z,966.80
2019-02-19T21:25:59.729Z,966.82
2019-02-19T21:26:59.614Z,966.80
2019-02-19T21:27:59.566Z,966.82
2019-02-19T21:28:59.516Z,966.86
2019-02-19T21:29:59.465Z,966.89
2019-02-19T21:30:59.454Z,966.92
2019-02-19T21:31:59.368Z,966.90
2019-02-19T21:32:59.315Z,966.88
2019-02-19T21:33:59.429Z,966.85
2019-02-19T21:34:59.221Z,966.86
2019-02-19T21:35:59.167Z,966.84
2019-02-19T21:36:59.192Z,966.84
2019-02-19T21:37:59.069Z,966.80
2019-02-19T21:38:59.019Z,966.79
2019-02-19T21:39:58.969Z,966.78
2019-02-19T21:40:58.920Z,966.79
2019-02-19T21:41:58.879Z,966.79
2019-02-19T21:42:58.819Z,966.80
2019-02-19T21:43:58.771Z,966.83
2019-02-19T21:44:58.933Z,966.85
2019-02-19T21:45:58.672Z,966.90
2019-02-19T21:46:58.623Z,966.87
2019-02-19T21:47:58.648Z,966.85
2019-02-19T21:48:58.523Z,966.86
2019-02-19T21:49:58.474Z,966.89
2019-02-19T21:50:58.424Z,966.90
2019-02-19T21:51:58.385Z,966.88
2019-02-19T21:52:58.326Z,966.89
2019-02-19T21:53:58.448Z,966.92
2019-02-19T21:54:58.224Z,966.93
2019-02-19T21:55:58.175Z,966.90
2019-02-19T21:56:58.194Z,966.90
2019-02-19T21:57:59.708Z,966.93
2019-02-19T21:58:58.025Z,966.91
2019-02-19T21:59:57.977Z,966.93
2019-02-19T22:00:57.925Z,966.92
2019-02-19T22:01:57.879Z,966.92
2019-02-19T22:02:58.052Z,966.95
2019-02-19T22:03:57.778Z,966.90
2019-02-19T22:04:57.730Z,966.97
2019-02-19T22:05:57.743Z,966.96
2019-02-19T22:06:57.637Z,966.98
2019-02-19T22:07:57.580Z,967.00
2019-02-19T22:08:57.528Z,966.94
2019-02-19T22:09:57.479Z,967.00
2019-02-19T22:10:57.433Z,966.98
2019-02-19T22:11:57.381Z,966.96
2019-02-19T22:12:57.330Z,966.99
2019-02-19T22:13:57.455Z,966.97
2019-02-19T22:14:57.233Z,966.98
2019-02-19T22:15:57.185Z,967.00
2019-02-19T22:16:57.204Z,966.97
2019-02-19T22:17:57.082Z,967.01
2019-02-19T22:18:57.033Z,967.00
2019-02-19T22:20:02.869Z,967.00
2019-02-19T22:20:56.931Z,967.03
2019-02-19T22:22:03.233Z,967.10
2019-02-19T22:22:57.063Z,967.08
2019-02-19T22:23:56.784Z,967.11
2019-02-19T22:24:56.734Z,967.12
2019-02-19T22:25:56.762Z,967.11
2019-02-19T22:26:56.636Z,967.15
2019-02-19T22:27:56.583Z,967.15
2019-02-19T22:28:56.534Z,967.16
2019-02-19T22:29:56.486Z,967.17
2019-02-19T22:30:56.438Z,967.21
2019-02-19T22:31:56.388Z,967.17
2019-02-19T22:32:56.343Z,967.13
2019-02-19T22:33:56.452Z,967.14
2019-02-19T22:34:56.240Z,967.13
2019-02-19T22:35:56.192Z,967.11
2019-02-19T22:36:56.213Z,967.12
2019-02-19T22:37:56.089Z,967.14
2019-02-19T22:38:56.042Z,967.15
2019-02-19T22:39:55.990Z,967.10
2019-02-19T22:40:55.940Z,967.13
2019-02-19T22:41:55.893Z,967.11
2019-02-19T22:42:56.199Z,967.09
2019-02-19T22:43:55.791Z,967.07
2019-02-19T22:44:55.753Z,967.06
2019-02-19T22:45:55.761Z,967.09
2019-02-19T22:46:55.643Z,967.04
2019-02-19T22:47:55.593Z,967.09
2019-02-19T22:48:55.544Z,967.06
2019-02-19T22:49:55.493Z,967.06
2019-02-19T22:50:55.445Z,967.09
2019-02-19T22:51:55.563Z,967.14
2019-02-19T22:52:55.343Z,967.15
2019-02-19T22:53:55.295Z,967.13
2019-02-19T22:54:55.310Z,967.21
2019-02-19T22:55:55.196Z,967.19
2019-02-19T22:56:55.146Z,967.20
2019-02-19T22:57:55.098Z,967.19
2019-02-19T22:58:55.046Z,967.22
2019-02-19T22:59:54.999Z,967.22
2019-02-19T23:00:55.166Z,967.22
2019-02-19T23:01:54.902Z,967.21
2019-02-19T23:02:54.848Z,967.22
2019-02-19T23:03:54.806Z,967.24
2019-02-19T23:04:54.749Z,967.24
2019-02-19T23:05:54.732Z,967.24
2019-02-19T23:06:54.652Z,967.22
2019-02-19T23:07:54.601Z,967.24
2019-02-19T23:08:54.600Z,967.23
2019-02-19T23:09:54.520Z,967.22
2019-02-19T23:10:54.458Z,967.20
2019-02-19T23:11:54.401Z,967.18
2019-02-19T23:12:54.410Z,967.20
2019-02-19T23:13:54.303Z,967.20
2019-02-19T23:14:54.253Z,967.21
2019-02-19T23:15:54.203Z,967.19
2019-02-19T23:16:54.155Z,967.22
2019-02-19T23:17:54.104Z,967.22
2019-02-19T23:18:54.055Z,967.24
2019-02-19T23:19:54.003Z,967.21
2019-02-19T23:20:54.195Z,967.22
2019-02-19T23:21:53.913Z,967.19
2019-02-19T23:22:53.856Z,967.21
2019-02-19T23:23:53.806Z,967.18
2019-02-19T23:24:53.787Z,967.23
2019-02-19T23:25:53.708Z,967.20
2019-02-19T23:26:53.657Z,967.19
2019-02-19T23:27:53.608Z,967.23
2019-02-19T23:28:53.559Z,967.18
2019-02-19T23:29:53.691Z,967.20
2019-02-19T23:30:53.459Z,967.22
2019-02-19T23:31:53.408Z,967.23
2019-02-19T23:32:53.420Z,967.23
2019-02-19T23:33:53.309Z,967.23
2019-02-19T23:34:53.260Z,967.22
2019-02-19T23:35:55.019Z,967.25
2019-02-19T23:36:53.182Z,967.25
2019-02-19T23:37:53.110Z,967.24
2019-02-19T23:38:53.304Z,967.26
2019-02-19T23:39:53.011Z,967.24
2019-02-19T23:40:52.962Z,967.24
2019-02-19T23:41:52.910Z,967.19
2019-02-19T23:42:52.859Z,967.23
2019-02-19T23:43:52.816Z,967.20
2019-02-19T23:44:52.761Z,967.24
2019-02-19T23:45:52.731Z,967.27
2019-02-19T23:46:52.663Z,967.27
2019-02-19T23:47:52.806Z,967.25
2019-02-19T23:48:52.561Z,967.21
2019-02-19T23:49:52.525Z,967.24
2019-02-19T23:50:52.515Z,967.24
2019-02-19T23:51:52.413Z,967.22
2019-02-19T23:52:52.361Z,967.25
2019-02-19T23:53:52.311Z,967.30
2019-02-19T23:54:52.262Z,967.30
2019-02-19T23:55:52.214Z,967.26
2019-02-19T23:56:52.186Z,967.28
2019-02-19T23:57:52.116Z,967.26
2019-02-19T23:58:52.322Z,967.33
2019-02-19T23:59:52.015Z,967.32
